sensor_id;sensor_type;location;lat;lon;timestamp;P1;durP1;ratioP1;P2;durP2;ratioP2
62711;SDS011;48772;55.586;37.730;2023-04-28T00:02:22;12.15;;;7.60;;
62711;SDS011;48772;55.586;37.730;2023-04-28T00:04:48;17.83;;;7.53;;
62711;SDS011;48772;55.586;37.730;2023-04-28T00:07:14;20.58;;;7.35;;
62711;SDS011;48772;55.586;37.730;2023-04-28T00:09:40;14.13;;;7.03;;
62711;SDS011;48772;55.586;37.730;2023-04-28T00:12:06;24.13;;;7.82;;
62711;SDS011;48772;55.586;37.730;2023-04-28T00:14:32;14.30;;;6.90;;
62711;SDS011;48772;55.586;37.730;2023-04-28T00:16:58;17.90;;;7.13;;
62711;SDS011;48772;55.586;37.730;2023-04-28T00:19:24;14.48;;;7.25;;
62711;SDS011;48772;55.586;37.730;2023-04-28T00:21:50;14.00;;;7.72;;
62711;SDS011;48772;55.586;37.730;2023-04-28T00:24:15;9.77;;;6.60;;
62711;SDS011;48772;55.586;37.730;2023-04-28T00:26:41;14.80;;;8.00;;
62711;SDS011;48772;55.586;37.730;2023-04-28T00:29:07;16.95;;;8.20;;
62711;SDS011;48772;55.586;37.730;2023-04-28T00:31:33;15.93;;;7.05;;
62711;SDS011;48772;55.586;37.730;2023-04-28T00:33:59;12.75;;;7.60;;
62711;SDS011;48772;55.586;37.730;2023-04-28T00:36:25;12.65;;;7.95;;
62711;SDS011;48772;55.586;37.730;2023-04-28T00:38:55;16.40;;;8.30;;
62711;SDS011;48772;55.586;37.730;2023-04-28T00:41:21;18.73;;;8.43;;
62711;SDS011;48772;55.586;37.730;2023-04-28T00:43:47;17.83;;;7.72;;
62711;SDS011;48772;55.586;37.730;2023-04-28T00:46:20;21.45;;;7.25;;
62711;SDS011;48772;55.586;37.730;2023-04-28T00:48:47;19.23;;;8.55;;
62711;SDS011;48772;55.586;37.730;2023-04-28T00:51:14;14.88;;;8.45;;
62711;SDS011;48772;55.586;37.730;2023-04-28T00:53:42;18.25;;;8.13;;
62711;SDS011;48772;55.586;37.730;2023-04-28T00:56:08;12.07;;;7.10;;
62711;SDS011;48772;55.586;37.730;2023-04-28T00:58:35;14.40;;;7.68;;
62711;SDS011;48772;55.586;37.730;2023-04-28T01:01:19;14.48;;;7.53;;
62711;SDS011;48772;55.586;37.730;2023-04-28T01:03:45;12.70;;;6.55;;
62711;SDS011;48772;55.586;37.730;2023-04-28T01:06:11;13.85;;;9.95;;
62711;SDS011;48772;55.586;37.730;2023-04-28T01:08:57;13.77;;;8.68;;
62711;SDS011;48772;55.586;37.730;2023-04-28T01:11:23;24.50;;;8.20;;
62711;SDS011;48772;55.586;37.730;2023-04-28T01:14:21;14.27;;;8.15;;
62711;SDS011;48772;55.586;37.730;2023-04-28T01:16:47;14.40;;;7.47;;
62711;SDS011;48772;55.586;37.730;2023-04-28T01:19:31;11.95;;;7.32;;
62711;SDS011;48772;55.586;37.730;2023-04-28T01:21:57;13.38;;;8.73;;
62711;SDS011;48772;55.586;37.730;2023-04-28T01:24:43;14.55;;;7.55;;
62711;SDS011;48772;55.586;37.730;2023-04-28T01:29:55;15.73;;;6.47;;
62711;SDS011;48772;55.586;37.730;2023-04-28T01:32:58;8.63;;;5.63;;
62711;SDS011;48772;55.586;37.730;2023-04-28T01:35:25;11.85;;;6.75;;
62711;SDS011;48772;55.586;37.730;2023-04-28T01:38:09;11.43;;;7.47;;
62711;SDS011;48772;55.586;37.730;2023-04-28T01:40:35;10.90;;;5.63;;
62711;SDS011;48772;55.586;37.730;2023-04-28T01:43:02;13.10;;;7.75;;
62711;SDS011;48772;55.586;37.730;2023-04-28T01:45:29;17.75;;;8.82;;
62711;SDS011;48772;55.586;37.730;2023-04-28T01:50:57;11.90;;;8.80;;
62711;SDS011;48772;55.586;37.730;2023-04-28T01:53:23;14.43;;;8.35;;
62711;SDS011;48772;55.586;37.730;2023-04-28T01:58:34;19.70;;;8.82;;
62711;SDS011;48772;55.586;37.730;2023-04-28T02:04:03;21.33;;;9.63;;
62711;SDS011;48772;55.586;37.730;2023-04-28T02:06:47;17.10;;;9.85;;
62711;SDS011;48772;55.586;37.730;2023-04-28T02:09:13;23.40;;;10.98;;
62711;SDS011;48772;55.586;37.730;2023-04-28T02:11:39;11.77;;;9.32;;
62711;SDS011;48772;55.586;37.730;2023-04-28T02:16:50;14.77;;;9.90;;
62711;SDS011;48772;55.586;37.730;2023-04-28T02:19:16;22.83;;;10.75;;
62711;SDS011;48772;55.586;37.730;2023-04-28T02:21:42;18.48;;;9.52;;
62711;SDS011;48772;55.586;37.730;2023-04-28T02:24:07;21.67;;;11.40;;
62711;SDS011;48772;55.586;37.730;2023-04-28T02:26:52;16.77;;;10.05;;
62711;SDS011;48772;55.586;37.730;2023-04-28T02:29:18;14.80;;;9.90;;
62711;SDS011;48772;55.586;37.730;2023-04-28T02:31:44;19.40;;;10.25;;
62711;SDS011;48772;55.586;37.730;2023-04-28T02:34:10;19.98;;;9.65;;
62711;SDS011;48772;55.586;37.730;2023-04-28T02:36:36;16.60;;;10.25;;
62711;SDS011;48772;55.586;37.730;2023-04-28T02:39:03;18.90;;;10.23;;
62711;SDS011;48772;55.586;37.730;2023-04-28T02:41:29;14.68;;;9.90;;
62711;SDS011;48772;55.586;37.730;2023-04-28T02:43:55;16.33;;;9.00;;
62711;SDS011;48772;55.586;37.730;2023-04-28T02:46:39;17.10;;;10.10;;
62711;SDS011;48772;55.586;37.730;2023-04-28T02:49:05;12.23;;;8.35;;
62711;SDS011;48772;55.586;37.730;2023-04-28T02:51:31;14.13;;;8.35;;
62711;SDS011;48772;55.586;37.730;2023-04-28T02:54:16;13.38;;;8.20;;
62711;SDS011;48772;55.586;37.730;2023-04-28T02:56:51;17.63;;;9.02;;
62711;SDS011;48772;55.586;37.730;2023-04-28T02:59:17;23.20;;;9.15;;
62711;SDS011;48772;55.586;37.730;2023-04-28T03:01:43;19.40;;;9.32;;
62711;SDS011;48772;55.586;37.730;2023-04-28T03:04:09;15.52;;;7.53;;
62711;SDS011;48772;55.586;37.730;2023-04-28T03:06:34;15.07;;;8.55;;
62711;SDS011;48772;55.586;37.730;2023-04-28T03:09:00;9.60;;;7.10;;
62711;SDS011;48772;55.586;37.730;2023-04-28T03:11:26;11.88;;;9.13;;
62711;SDS011;48772;55.586;37.730;2023-04-28T03:13:52;14.85;;;8.98;;
62711;SDS011;48772;55.586;37.730;2023-04-28T03:16:18;15.13;;;7.60;;
62711;SDS011;48772;55.586;37.730;2023-04-28T03:18:44;9.25;;;6.32;;
62711;SDS011;48772;55.586;37.730;2023-04-28T03:21:09;21.67;;;9.50;;
62711;SDS011;48772;55.586;37.730;2023-04-28T03:23:35;13.30;;;8.57;;
62711;SDS011;48772;55.586;37.730;2023-04-28T03:26:01;13.95;;;7.75;;
62711;SDS011;48772;55.586;37.730;2023-04-28T03:28:27;13.35;;;8.07;;
62711;SDS011;48772;55.586;37.730;2023-04-28T03:31:13;16.88;;;8.82;;
62711;SDS011;48772;55.586;37.730;2023-04-28T03:33:38;8.82;;;7.13;;
62711;SDS011;48772;55.586;37.730;2023-04-28T03:36:05;12.32;;;7.93;;
62711;SDS011;48772;55.586;37.730;2023-04-28T03:38:31;12.27;;;7.70;;
62711;SDS011;48772;55.586;37.730;2023-04-28T03:40:57;8.40;;;7.20;;
62711;SDS011;48772;55.586;37.730;2023-04-28T03:43:42;6.90;;;4.20;;
62711;SDS011;48772;55.586;37.730;2023-04-28T03:46:26;10.30;;;6.07;;
62711;SDS011;48772;55.586;37.730;2023-04-28T03:48:52;15.05;;;8.48;;
62711;SDS011;48772;55.586;37.730;2023-04-28T03:51:18;7.07;;;5.80;;
62711;SDS011;48772;55.586;37.730;2023-04-28T03:53:44;10.30;;;7.65;;
62711;SDS011;48772;55.586;37.730;2023-04-28T03:56:11;8.80;;;6.80;;
62711;SDS011;48772;55.586;37.730;2023-04-28T03:58:38;10.77;;;8.15;;
62711;SDS011;48772;55.586;37.730;2023-04-28T04:01:04;8.05;;;5.70;;
62711;SDS011;48772;55.586;37.730;2023-04-28T04:03:30;11.65;;;6.32;;
62711;SDS011;48772;55.586;37.730;2023-04-28T04:05:56;16.23;;;7.13;;
62711;SDS011;48772;55.586;37.730;2023-04-28T04:08:23;12.68;;;8.20;;
62711;SDS011;48772;55.586;37.730;2023-04-28T04:10:49;11.40;;;8.63;;
62711;SDS011;48772;55.586;37.730;2023-04-28T04:13:15;13.07;;;6.07;;
62711;SDS011;48772;55.586;37.730;2023-04-28T04:16:03;9.60;;;7.47;;
62711;SDS011;48772;55.586;37.730;2023-04-28T04:21:33;10.52;;;7.32;;
62711;SDS011;48772;55.586;37.730;2023-04-28T04:23:59;11.32;;;7.00;;
62711;SDS011;48772;55.586;37.730;2023-04-28T04:26:26;7.55;;;6.38;;
62711;SDS011;48772;55.586;37.730;2023-04-28T04:28:53;13.35;;;7.70;;
62711;SDS011;48772;55.586;37.730;2023-04-28T04:31:19;10.30;;;7.60;;
62711;SDS011;48772;55.586;37.730;2023-04-28T04:33:45;7.82;;;6.13;;
62711;SDS011;48772;55.586;37.730;2023-04-28T04:36:12;11.27;;;7.25;;
62711;SDS011;48772;55.586;37.730;2023-04-28T04:38:38;9.98;;;7.07;;
62711;SDS011;48772;55.586;37.730;2023-04-28T04:41:11;11.02;;;6.63;;
62711;SDS011;48772;55.586;37.730;2023-04-28T04:43:37;11.48;;;6.15;;
62711;SDS011;48772;55.586;37.730;2023-04-28T04:46:03;10.82;;;6.75;;
62711;SDS011;48772;55.586;37.730;2023-04-28T04:48:30;13.18;;;7.05;;
62711;SDS011;48772;55.586;37.730;2023-04-28T04:50:57;6.18;;;4.93;;
62711;SDS011;48772;55.586;37.730;2023-04-28T04:53:24;9.93;;;6.95;;
62711;SDS011;48772;55.586;37.730;2023-04-28T04:55:50;14.60;;;8.00;;
62711;SDS011;48772;55.586;37.730;2023-04-28T04:58:16;10.45;;;7.00;;
62711;SDS011;48772;55.586;37.730;2023-04-28T05:03:26;8.77;;;5.80;;
62711;SDS011;48772;55.586;37.730;2023-04-28T05:05:52;9.77;;;6.85;;
62711;SDS011;48772;55.586;37.730;2023-04-28T05:08:28;6.28;;;5.30;;
62711;SDS011;48772;55.586;37.730;2023-04-28T05:10:55;10.10;;;6.78;;
62711;SDS011;48772;55.586;37.730;2023-04-28T05:16:06;10.40;;;7.47;;
62711;SDS011;48772;55.586;37.730;2023-04-28T05:18:42;10.80;;;6.10;;
62711;SDS011;48772;55.586;37.730;2023-04-28T05:21:09;9.48;;;6.25;;
62711;SDS011;48772;55.586;37.730;2023-04-28T05:23:36;9.13;;;6.45;;
62711;SDS011;48772;55.586;37.730;2023-04-28T05:26:02;10.07;;;6.38;;
62711;SDS011;48772;55.586;37.730;2023-04-28T05:28:30;10.30;;;6.32;;
62711;SDS011;48772;55.586;37.730;2023-04-28T05:31:14;9.23;;;6.70;;
62711;SDS011;48772;55.586;37.730;2023-04-28T05:33:40;12.65;;;6.10;;
62711;SDS011;48772;55.586;37.730;2023-04-28T05:36:06;12.25;;;6.47;;
62711;SDS011;48772;55.586;37.730;2023-04-28T05:38:33;8.65;;;6.55;;
62711;SDS011;48772;55.586;37.730;2023-04-28T05:41:01;8.60;;;7.13;;
62711;SDS011;48772;55.586;37.730;2023-04-28T05:43:27;11.65;;;6.13;;
62711;SDS011;48772;55.586;37.730;2023-04-28T05:45:53;9.68;;;5.60;;
62711;SDS011;48772;55.586;37.730;2023-04-28T05:48:19;10.18;;;5.82;;
62711;SDS011;48772;55.586;37.730;2023-04-28T05:50:45;6.88;;;5.45;;
62711;SDS011;48772;55.586;37.730;2023-04-28T05:53:11;7.32;;;5.30;;
62711;SDS011;48772;55.586;37.730;2023-04-28T05:55:37;10.05;;;5.40;;
62711;SDS011;48772;55.586;37.730;2023-04-28T05:58:03;7.00;;;4.25;;
62711;SDS011;48772;55.586;37.730;2023-04-28T06:00:29;11.85;;;4.53;;
62711;SDS011;48772;55.586;37.730;2023-04-28T06:02:58;6.40;;;4.80;;
62711;SDS011;48772;55.586;37.730;2023-04-28T06:05:24;9.10;;;4.05;;
62711;SDS011;48772;55.586;37.730;2023-04-28T06:07:53;7.55;;;4.35;;
62711;SDS011;48772;55.586;37.730;2023-04-28T06:10:21;6.22;;;4.30;;
62711;SDS011;48772;55.586;37.730;2023-04-28T06:12:50;8.57;;;4.20;;
62711;SDS011;48772;55.586;37.730;2023-04-28T06:15:16;4.13;;;3.72;;
62711;SDS011;48772;55.586;37.730;2023-04-28T06:17:42;6.47;;;4.57;;
62711;SDS011;48772;55.586;37.730;2023-04-28T06:20:08;5.47;;;4.90;;
62711;SDS011;48772;55.586;37.730;2023-04-28T06:22:36;5.15;;;4.47;;
62711;SDS011;48772;55.586;37.730;2023-04-28T06:25:02;5.45;;;4.53;;
62711;SDS011;48772;55.586;37.730;2023-04-28T06:27:33;12.43;;;4.07;;
62711;SDS011;48772;55.586;37.730;2023-04-28T06:29:59;9.32;;;4.82;;
62711;SDS011;48772;55.586;37.730;2023-04-28T06:32:25;5.13;;;4.28;;
62711;SDS011;48772;55.586;37.730;2023-04-28T06:34:51;8.13;;;5.13;;
62711;SDS011;48772;55.586;37.730;2023-04-28T06:37:17;7.88;;;5.15;;
62711;SDS011;48772;55.586;37.730;2023-04-28T06:39:43;8.50;;;4.93;;
62711;SDS011;48772;55.586;37.730;2023-04-28T06:42:09;8.10;;;5.47;;
62711;SDS011;48772;55.586;37.730;2023-04-28T06:44:40;10.35;;;4.85;;
62711;SDS011;48772;55.586;37.730;2023-04-28T06:47:06;6.63;;;4.78;;
62711;SDS011;48772;55.586;37.730;2023-04-28T06:49:32;11.23;;;4.70;;
62711;SDS011;48772;55.586;37.730;2023-04-28T06:51:59;6.25;;;4.97;;
62711;SDS011;48772;55.586;37.730;2023-04-28T06:54:28;7.78;;;5.00;;
62711;SDS011;48772;55.586;37.730;2023-04-28T06:56:55;7.82;;;5.60;;
62711;SDS011;48772;55.586;37.730;2023-04-28T06:59:23;8.98;;;5.38;;
62711;SDS011;48772;55.586;37.730;2023-04-28T07:01:49;9.02;;;5.65;;
62711;SDS011;48772;55.586;37.730;2023-04-28T07:04:15;6.72;;;5.03;;
62711;SDS011;48772;55.586;37.730;2023-04-28T07:06:41;7.72;;;5.03;;
62711;SDS011;48772;55.586;37.730;2023-04-28T07:09:07;6.72;;;4.93;;
62711;SDS011;48772;55.586;37.730;2023-04-28T07:11:37;9.05;;;5.50;;
62711;SDS011;48772;55.586;37.730;2023-04-28T07:14:07;9.13;;;5.50;;
62711;SDS011;48772;55.586;37.730;2023-04-28T07:16:35;8.38;;;4.70;;
62711;SDS011;48772;55.586;37.730;2023-04-28T07:19:00;7.07;;;4.63;;
62711;SDS011;48772;55.586;37.730;2023-04-28T07:21:27;7.57;;;5.22;;
62711;SDS011;48772;55.586;37.730;2023-04-28T07:23:53;7.38;;;4.43;;
62711;SDS011;48772;55.586;37.730;2023-04-28T07:26:22;7.65;;;5.35;;
62711;SDS011;48772;55.586;37.730;2023-04-28T07:28:48;6.22;;;5.00;;
62711;SDS011;48772;55.586;37.730;2023-04-28T07:31:14;7.55;;;4.55;;
62711;SDS011;48772;55.586;37.730;2023-04-28T07:33:40;6.28;;;5.38;;
62711;SDS011;48772;55.586;37.730;2023-04-28T07:38:51;10.02;;;5.43;;
62711;SDS011;48772;55.586;37.730;2023-04-28T07:41:17;7.63;;;5.70;;
62711;SDS011;48772;55.586;37.730;2023-04-28T07:46:30;8.02;;;6.18;;
62711;SDS011;48772;55.586;37.730;2023-04-28T07:48:56;5.85;;;4.18;;
62711;SDS011;48772;55.586;37.730;2023-04-28T07:51:23;8.35;;;5.85;;
62711;SDS011;48772;55.586;37.730;2023-04-28T07:53:48;6.03;;;4.65;;
62711;SDS011;48772;55.586;37.730;2023-04-28T07:56:33;4.82;;;3.70;;
62711;SDS011;48772;55.586;37.730;2023-04-28T07:59:18;12.07;;;7.88;;
62711;SDS011;48772;55.586;37.730;2023-04-28T08:01:43;11.05;;;8.48;;
62711;SDS011;48772;55.586;37.730;2023-04-28T08:04:10;12.90;;;9.40;;
62711;SDS011;48772;55.586;37.730;2023-04-28T08:06:36;10.20;;;7.13;;
62711;SDS011;48772;55.586;37.730;2023-04-28T08:09:21;15.13;;;8.43;;
62711;SDS011;48772;55.586;37.730;2023-04-28T08:11:46;11.30;;;8.27;;
62711;SDS011;48772;55.586;37.730;2023-04-28T08:14:12;14.23;;;9.02;;
62711;SDS011;48772;55.586;37.730;2023-04-28T08:16:38;19.00;;;9.30;;
62711;SDS011;48772;55.586;37.730;2023-04-28T08:19:05;11.35;;;8.20;;
62711;SDS011;48772;55.586;37.730;2023-04-28T08:21:32;10.45;;;8.32;;
62711;SDS011;48772;55.586;37.730;2023-04-28T08:23:58;11.48;;;7.95;;
62711;SDS011;48772;55.586;37.730;2023-04-28T08:26:25;12.32;;;7.85;;
62711;SDS011;48772;55.586;37.730;2023-04-28T08:28:51;8.43;;;6.40;;
62711;SDS011;48772;55.586;37.730;2023-04-28T08:31:17;7.95;;;6.22;;
62711;SDS011;48772;55.586;37.730;2023-04-28T08:33:43;10.30;;;7.53;;
62711;SDS011;48772;55.586;37.730;2023-04-28T08:36:13;9.65;;;6.88;;
62711;SDS011;48772;55.586;37.730;2023-04-28T08:38:43;11.60;;;6.97;;
62711;SDS011;48772;55.586;37.730;2023-04-28T08:41:11;11.27;;;8.52;;
62711;SDS011;48772;55.586;37.730;2023-04-28T08:43:39;9.90;;;7.53;;
62711;SDS011;48772;55.586;37.730;2023-04-28T08:48:59;9.55;;;6.72;;
62711;SDS011;48772;55.586;37.730;2023-04-28T08:51:31;11.75;;;6.30;;
62711;SDS011;48772;55.586;37.730;2023-04-28T08:53:58;9.07;;;6.35;;
62711;SDS011;48772;55.586;37.730;2023-04-28T08:56:31;8.55;;;7.18;;
62711;SDS011;48772;55.586;37.730;2023-04-28T08:59:00;11.73;;;7.40;;
62711;SDS011;48772;55.586;37.730;2023-04-28T09:01:31;8.60;;;6.88;;
62711;SDS011;48772;55.586;37.730;2023-04-28T09:03:59;9.38;;;7.65;;
62711;SDS011;48772;55.586;37.730;2023-04-28T09:06:36;7.20;;;6.47;;
62711;SDS011;48772;55.586;37.730;2023-04-28T09:11:56;8.00;;;6.88;;
62711;SDS011;48772;55.586;37.730;2023-04-28T09:14:29;8.95;;;7.90;;
62711;SDS011;48772;55.586;37.730;2023-04-28T09:17:33;13.32;;;8.18;;
62711;SDS011;48772;55.586;37.730;2023-04-28T09:19:52;8.27;;;6.47;;
62711;SDS011;48772;55.586;37.730;2023-04-28T09:22:18;8.30;;;6.95;;
62711;SDS011;48772;55.586;37.730;2023-04-28T09:24:52;10.98;;;7.28;;
62711;SDS011;48772;55.586;37.730;2023-04-28T09:27:25;7.60;;;6.60;;
62711;SDS011;48772;55.586;37.730;2023-04-28T09:29:52;7.65;;;6.95;;
62711;SDS011;48772;55.586;37.730;2023-04-28T09:32:19;10.25;;;7.18;;
62711;SDS011;48772;55.586;37.730;2023-04-28T09:34:48;7.78;;;6.97;;
62711;SDS011;48772;55.586;37.730;2023-04-28T09:37:19;8.57;;;7.32;;
62711;SDS011;48772;55.586;37.730;2023-04-28T09:39:48;8.15;;;7.35;;
62711;SDS011;48772;55.586;37.730;2023-04-28T09:45:00;8.52;;;7.45;;
62711;SDS011;48772;55.586;37.730;2023-04-28T09:47:33;10.47;;;7.00;;
62711;SDS011;48772;55.586;37.730;2023-04-28T09:50:03;8.27;;;7.28;;
62711;SDS011;48772;55.586;37.730;2023-04-28T09:52:32;12.30;;;8.13;;
62711;SDS011;48772;55.586;37.730;2023-04-28T09:55:02;11.18;;;8.50;;
62711;SDS011;48772;55.586;37.730;2023-04-28T09:57:30;9.18;;;6.65;;
62711;SDS011;48772;55.586;37.730;2023-04-28T09:59:59;11.48;;;7.90;;
62711;SDS011;48772;55.586;37.730;2023-04-28T10:02:36;9.45;;;8.48;;
62711;SDS011;48772;55.586;37.730;2023-04-28T10:05:02;10.40;;;8.55;;
62711;SDS011;48772;55.586;37.730;2023-04-28T10:07:33;8.75;;;7.88;;
62711;SDS011;48772;55.586;37.730;2023-04-28T10:10:01;9.52;;;8.45;;
62711;SDS011;48772;55.586;37.730;2023-04-28T10:12:33;9.32;;;8.30;;
62711;SDS011;48772;55.586;37.730;2023-04-28T10:14:59;9.90;;;8.88;;
62711;SDS011;48772;55.586;37.730;2023-04-28T10:17:32;9.32;;;8.43;;
62711;SDS011;48772;55.586;37.730;2023-04-28T10:19:59;10.25;;;8.98;;
62711;SDS011;48772;55.586;37.730;2023-04-28T10:27:43;11.18;;;9.50;;
62711;SDS011;48772;55.586;37.730;2023-04-28T10:30:15;9.35;;;8.45;;
62711;SDS011;48772;55.586;37.730;2023-04-28T10:32:46;9.88;;;8.70;;
62711;SDS011;48772;55.586;37.730;2023-04-28T10:40:46;7.97;;;7.15;;
62711;SDS011;48772;55.586;37.730;2023-04-28T10:43:14;10.90;;;8.98;;
62711;SDS011;48772;55.586;37.730;2023-04-28T10:58:55;9.82;;;8.57;;
62711;SDS011;48772;55.586;37.730;2023-04-28T11:09:00;9.57;;;8.13;;
62711;SDS011;48772;55.586;37.730;2023-04-28T11:11:29;8.07;;;6.93;;
62711;SDS011;48772;55.586;37.730;2023-04-28T11:19:13;9.10;;;7.32;;
62711;SDS011;48772;55.586;37.730;2023-04-28T11:21:44;11.85;;;6.03;;
62711;SDS011;48772;55.586;37.730;2023-04-28T11:24:12;10.05;;;8.07;;
62711;SDS011;48772;55.586;37.730;2023-04-28T11:26:38;9.73;;;6.90;;
62711;SDS011;48772;55.586;37.730;2023-04-28T11:29:05;12.13;;;8.32;;
62711;SDS011;48772;55.586;37.730;2023-04-28T11:31:32;9.25;;;7.50;;
62711;SDS011;48772;55.586;37.730;2023-04-28T11:33:59;10.93;;;8.73;;
62711;SDS011;48772;55.586;37.730;2023-04-28T11:36:31;11.35;;;9.63;;
62711;SDS011;48772;55.586;37.730;2023-04-28T11:39:04;11.88;;;9.18;;
62711;SDS011;48772;55.586;37.730;2023-04-28T11:41:39;15.98;;;9.25;;
62711;SDS011;48772;55.586;37.730;2023-04-28T11:44:13;13.93;;;9.52;;
62711;SDS011;48772;55.586;37.730;2023-04-28T11:49:11;15.70;;;10.13;;
62711;SDS011;48772;55.586;37.730;2023-04-28T11:51:39;11.80;;;8.57;;
62711;SDS011;48772;55.586;37.730;2023-04-28T11:54:07;9.15;;;8.20;;
62711;SDS011;48772;55.586;37.730;2023-04-28T11:56:37;11.07;;;7.35;;
62711;SDS011;48772;55.586;37.730;2023-04-28T12:01:32;13.18;;;9.18;;
62711;SDS011;48772;55.586;37.730;2023-04-28T12:04:01;10.35;;;8.60;;
62711;SDS011;48772;55.586;37.730;2023-04-28T12:06:28;12.15;;;8.82;;
62711;SDS011;48772;55.586;37.730;2023-04-28T12:08:54;11.30;;;8.70;;
62711;SDS011;48772;55.586;37.730;2023-04-28T12:11:20;12.35;;;8.20;;
62711;SDS011;48772;55.586;37.730;2023-04-28T12:14:02;9.70;;;8.50;;
62711;SDS011;48772;55.586;37.730;2023-04-28T12:16:36;8.85;;;7.95;;
62711;SDS011;48772;55.586;37.730;2023-04-28T12:19:03;12.55;;;8.40;;
62711;SDS011;48772;55.586;37.730;2023-04-28T12:21:32;12.48;;;9.27;;
62711;SDS011;48772;55.586;37.730;2023-04-28T12:23:57;13.32;;;9.35;;
62711;SDS011;48772;55.586;37.730;2023-04-28T12:26:24;8.18;;;7.18;;
62711;SDS011;48772;55.586;37.730;2023-04-28T12:28:50;8.05;;;6.95;;
62711;SDS011;48772;55.586;37.730;2023-04-28T12:31:15;15.05;;;9.68;;
62711;SDS011;48772;55.586;37.730;2023-04-28T12:33:41;12.35;;;9.52;;
62711;SDS011;48772;55.586;37.730;2023-04-28T12:36:09;9.95;;;8.50;;
62711;SDS011;48772;55.586;37.730;2023-04-28T12:38:35;13.07;;;10.18;;
62711;SDS011;48772;55.586;37.730;2023-04-28T12:41:02;14.68;;;9.70;;
62711;SDS011;48772;55.586;37.730;2023-04-28T12:43:28;12.18;;;9.88;;
62711;SDS011;48772;55.586;37.730;2023-04-28T12:45:54;13.85;;;10.32;;
62711;SDS011;48772;55.586;37.730;2023-04-28T12:48:21;8.50;;;7.63;;
62711;SDS011;48772;55.586;37.730;2023-04-28T12:50:50;9.73;;;7.05;;
62711;SDS011;48772;55.586;37.730;2023-04-28T12:53:16;12.35;;;9.02;;
62711;SDS011;48772;55.586;37.730;2023-04-28T12:55:43;10.98;;;9.88;;
62711;SDS011;48772;55.586;37.730;2023-04-28T12:58:08;12.70;;;9.50;;
62711;SDS011;48772;55.586;37.730;2023-04-28T13:00:34;11.43;;;8.75;;
62711;SDS011;48772;55.586;37.730;2023-04-28T13:03:00;12.95;;;9.50;;
62711;SDS011;48772;55.586;37.730;2023-04-28T13:05:26;11.63;;;9.52;;
62711;SDS011;48772;55.586;37.730;2023-04-28T13:07:52;10.68;;;9.57;;
62711;SDS011;48772;55.586;37.730;2023-04-28T13:10:18;15.93;;;9.15;;
62711;SDS011;48772;55.586;37.730;2023-04-28T13:12:46;13.05;;;9.27;;
62711;SDS011;48772;55.586;37.730;2023-04-28T13:15:12;10.48;;;9.38;;
62711;SDS011;48772;55.586;37.730;2023-04-28T13:17:38;12.27;;;9.80;;
62711;SDS011;48772;55.586;37.730;2023-04-28T13:20:04;12.10;;;10.27;;
62711;SDS011;48772;55.586;37.730;2023-04-28T13:22:33;11.10;;;9.85;;
62711;SDS011;48772;55.586;37.730;2023-04-28T13:24:59;11.77;;;9.75;;
62711;SDS011;48772;55.586;37.730;2023-04-28T13:27:25;13.68;;;9.80;;
62711;SDS011;48772;55.586;37.730;2023-04-28T13:29:54;11.32;;;8.98;;
62711;SDS011;48772;55.586;37.730;2023-04-28T13:32:23;13.90;;;8.68;;
62711;SDS011;48772;55.586;37.730;2023-04-28T13:34:49;8.55;;;7.75;;
62711;SDS011;48772;55.586;37.730;2023-04-28T13:37:15;10.40;;;7.78;;
62711;SDS011;48772;55.586;37.730;2023-04-28T13:39:41;9.15;;;8.05;;
62711;SDS011;48772;55.586;37.730;2023-04-28T13:42:07;10.48;;;8.40;;
62711;SDS011;48772;55.586;37.730;2023-04-28T13:44:33;8.40;;;6.70;;
62711;SDS011;48772;55.586;37.730;2023-04-28T13:46:59;8.18;;;7.38;;
62711;SDS011;48772;55.586;37.730;2023-04-28T13:49:25;8.75;;;7.43;;
62711;SDS011;48772;55.586;37.730;2023-04-28T13:51:51;8.43;;;7.60;;
62711;SDS011;48772;55.586;37.730;2023-04-28T13:54:17;8.40;;;7.32;;
62711;SDS011;48772;55.586;37.730;2023-04-28T13:56:43;10.18;;;7.32;;
62711;SDS011;48772;55.586;37.730;2023-04-28T13:59:09;10.88;;;6.80;;
62711;SDS011;48772;55.586;37.730;2023-04-28T14:01:35;6.75;;;6.03;;
62711;SDS011;48772;55.586;37.730;2023-04-28T14:04:01;6.72;;;5.63;;
62711;SDS011;48772;55.586;37.730;2023-04-28T14:06:27;8.00;;;6.15;;
62711;SDS011;48772;55.586;37.730;2023-04-28T14:08:53;7.90;;;5.05;;
62711;SDS011;48772;55.586;37.730;2023-04-28T14:11:19;11.52;;;6.50;;
62711;SDS011;48772;55.586;37.730;2023-04-28T14:13:45;10.18;;;5.07;;
62711;SDS011;48772;55.586;37.730;2023-04-28T14:16:11;5.55;;;4.18;;
62711;SDS011;48772;55.586;37.730;2023-04-28T14:18:38;8.40;;;5.30;;
62711;SDS011;48772;55.586;37.730;2023-04-28T14:21:06;6.85;;;5.47;;
62711;SDS011;48772;55.586;37.730;2023-04-28T14:23:54;5.70;;;5.10;;
62711;SDS011;48772;55.586;37.730;2023-04-28T14:26:20;7.20;;;5.25;;
62711;SDS011;48772;55.586;37.730;2023-04-28T14:28:48;5.93;;;4.93;;
62711;SDS011;48772;55.586;37.730;2023-04-28T14:31:13;7.45;;;4.53;;
62711;SDS011;48772;55.586;37.730;2023-04-28T14:33:39;7.20;;;5.10;;
62711;SDS011;48772;55.586;37.730;2023-04-28T14:36:06;6.72;;;4.97;;
62711;SDS011;48772;55.586;37.730;2023-04-28T14:38:31;7.32;;;4.38;;
62711;SDS011;48772;55.586;37.730;2023-04-28T14:40:57;6.20;;;4.22;;
62711;SDS011;48772;55.586;37.730;2023-04-28T14:43:23;5.93;;;4.60;;
62711;SDS011;48772;55.586;37.730;2023-04-28T14:45:49;6.13;;;4.53;;
62711;SDS011;48772;55.586;37.730;2023-04-28T14:48:15;7.97;;;5.00;;
62711;SDS011;48772;55.586;37.730;2023-04-28T14:50:41;6.40;;;5.07;;
62711;SDS011;48772;55.586;37.730;2023-04-28T14:53:07;6.30;;;4.72;;
62711;SDS011;48772;55.586;37.730;2023-04-28T14:55:33;7.45;;;5.55;;
62711;SDS011;48772;55.586;37.730;2023-04-28T14:57:59;10.88;;;5.57;;
62711;SDS011;48772;55.586;37.730;2023-04-28T15:00:25;9.52;;;5.78;;
62711;SDS011;48772;55.586;37.730;2023-04-28T15:02:51;8.07;;;5.50;;
62711;SDS011;48772;55.586;37.730;2023-04-28T15:05:17;9.52;;;5.55;;
62711;SDS011;48772;55.586;37.730;2023-04-28T15:07:43;7.60;;;5.50;;
62711;SDS011;48772;55.586;37.730;2023-04-28T15:10:09;6.13;;;4.70;;
62711;SDS011;48772;55.586;37.730;2023-04-28T15:12:35;8.63;;;4.65;;
62711;SDS011;48772;55.586;37.730;2023-04-28T15:15:01;7.82;;;4.50;;
62711;SDS011;48772;55.586;37.730;2023-04-28T15:17:29;9.60;;;4.88;;
62711;SDS011;48772;55.586;37.730;2023-04-28T15:19:55;7.13;;;4.55;;
62711;SDS011;48772;55.586;37.730;2023-04-28T15:22:21;10.82;;;5.45;;
62711;SDS011;48772;55.586;37.730;2023-04-28T15:24:47;6.25;;;3.83;;
62711;SDS011;48772;55.586;37.730;2023-04-28T15:27:13;7.07;;;4.63;;
62711;SDS011;48772;55.586;37.730;2023-04-28T15:29:39;4.35;;;3.60;;
62711;SDS011;48772;55.586;37.730;2023-04-28T15:32:04;10.98;;;3.63;;
62711;SDS011;48772;55.586;37.730;2023-04-28T15:34:31;5.13;;;3.53;;
62711;SDS011;48772;55.586;37.730;2023-04-28T15:36:58;6.45;;;3.33;;
62711;SDS011;48772;55.586;37.730;2023-04-28T15:39:23;6.70;;;3.20;;
62711;SDS011;48772;55.586;37.730;2023-04-28T15:41:50;7.47;;;3.78;;
62711;SDS011;48772;55.586;37.730;2023-04-28T15:44:17;9.90;;;3.50;;
62711;SDS011;48772;55.586;37.730;2023-04-28T15:46:43;8.50;;;3.67;;
62711;SDS011;48772;55.586;37.730;2023-04-28T15:49:09;6.55;;;3.53;;
62711;SDS011;48772;55.586;37.730;2023-04-28T15:51:36;6.57;;;3.20;;